Latest METARs, TAFs and NOTAMs for MYNN


---------------------------------------------------------------------------
	(OBSERVATIONS)
MYNN 021000Z 00000KT 9999 FEW020 26/23 A3002=
MYNN 020900Z 08002KT 9999 FEW018 26/24 A3001=
---------------------------------------------------------------------------
	(TERMINAL AREA FORECAST)
MYNN 020300Z 0206/0306 12010KT 9999 SCT015CB BKN018 BKN090
    PROB40
    TEMPO 0206/0209 VRB25KT 6000 SHRA BKN015=
---------------------------------------------------------------------------
	(NOTAMS)


MYNN A0068/13 VOR Y RWY 14 FEEDER RTE FM MAJUR TO MUNIE NOT AVBL
    VOR Y RWY 14 FEEDER RTE FM MELON TO MUNIE NOT AVBL. SFC -
    UNL, 19 APR 19:55 2013 UNTIL PERM. CREATED: 19 APR 19:51
    2013

MYNN A0069/13 VOR Y RWY 09 FEEDER RTE FM MAJUR TO MUSSE NOT AVBL
    REMOVE PROCEDURE NOTE 'RADAR REQUIRED' FM APP CHART. SFC
    - UNL, 19 APR 19:55 2013 UNTIL PERM. CREATED: 19 APR 19:52
    2013

MYNN A0070/13 VOR Y RWY 32 FEEDER RTE FM PRUNE TO WELKS NOT AVBL
    REMOVE PROCEDURE NOTE 'RADAR REQUIRED' FM APP CHART. SFC
    - UNL, 19 APR 19:55 2013 UNTIL PERM. CREATED: 19 APR 19:54
    2013

MYNN A0094/14 SIX TEMPORARY CRANES WITH RED OBSTRUCTION LIGHTS
    ON TOP LOCATION N 25 04 14.65 W 077 23 53.63 CRANES 427FT
    AMSL 3.81 NM NE OF RWY 27 ILS RWY 14, RNAV (GNSS) RWY 09
    RNAV (GNSS) RWY 14 RNAV (GNSS) RWY 32 VOR Z RWY 09 VOR Y
    RWY 09 VOR Z RWY 14 VOR Y RWY 14 VOR Z RWY 32 VOR Y RWY 32
    SRE RWY 09 SRE RWY 14 SRE RWY 32 CIRCLING CAT C OCA 860 /
    OCH 844 VIS CAT C 4600. 30 JUN 21:00 2014 UNTIL 30 SEP 21:00
    2014. CREATED: 30 JUN 19:35 2014

MYNN A0117/14 WITH THE EXCEPTION OF MYNN AND MYGF RNAV PROC IN
    THE BAHAMAS ARE NOT AUTH DUE TO AIRSPACE CLASSIFICATION RESTRICTIONS.
    29 JUL 12:00 2014 UNTIL 31 OCT 21:00 2014. CREATED: 28 JUL
    16:23 2014

MYNN A0129/14 CHECKLIST (A) SERIES YEAR=2010 0277 YEAR=2013 0068
    0069 0070 YEAR=2014 0086 0089 0090 0091 0092 0093 0094 0095
    0096 0097 0098 0099 0100 0117 0118 0128 LATEST PUBLICATIONS
    AIP AMDT 02/14 EFFECTIVE AUGUST 21, 2014 AIC 04/14. 30 AUG
    01:00 2014 UNTIL 30 SEP 23:59 2014. CREATED: 29 AUG 19:50
    2014

MYNN A0130/14 RWY 14/32 CLSD DUE TO MAINT. SEPT 02, 0900UTC -
    1530UTC SEPT 03, 1130UTC - 1530UTC, 02 SEP 09:00 2014 UNTIL
    03 SEP 15:30 2014. CREATED: 01 SEP 15:40 2014

MYNN A0131/14 TWY INDIA(I) CLSD DUE MAINT. 04 SEP 11:30 2014
    UNTIL 04 SEP 15:30 2014. CREATED: 01 SEP 15:44 2014

MYNN B0015/14 CHECKLIST (B) SERIES YEAR=2014 0012 0014 LATEST
    PUBLICATIONS AIP AMDT 02/14 EFFECTIVE AUGUST 21 2014 AIC
    04/14. 30 AUG 01:00 2014 UNTIL 28 NOV 23:59 2014. CREATED:
    29 AUG 19:49 2014

---------------------------------------------------------------------------